Time;durP1;ratioP1;P1;durP2;ratioP2;P2;SDS_P1;SDS_P2;PMS_P1;PMS_P2;Temp;Humidity;BMP_temperature;BMP_pressure;BME280_temperature;BME280_humidity;BME280_pressure;Samples;Min_cycle;Max_cycle;Signal;HPM_P1;HPM_P2
2022/11/30 00:02:21;;;;;;;;;;;;;;;5.00;68.98;102228.56;5126497;27;19938;-62
2022/11/30 00:04:46;;;;;;;;;;;;;;;5.04;69.07;102230.25;5123990;27;19953;-65
2022/11/30 00:07:11;;;;;;;;;;;;;;;5.03;68.75;102228.53;5131416;27;19938;-63
2022/11/30 00:09:37;;;;;;;;;;;;;;;5.06;68.78;102220.69;5127673;27;20372;-62
2022/11/30 00:12:02;;;;;;;;;;;;;;;5.00;69.06;102231.16;5132237;27;19923;-62
2022/11/30 00:14:28;;;;;;;;;;;;;;;4.99;69.32;102221.59;5132800;27;20342;-59
2022/11/30 00:16:53;;;;;;;;;;;;;;;5.00;68.79;102226.78;5134406;27;19923;-62
2022/11/30 00:19:18;;;;;;;;;;;;;;;4.99;68.92;102232.88;5130503;27;20016;-65
2022/11/30 00:21:44;;;;;;;;;;;;;;;5.01;69.23;102235.50;5134106;27;20294;-65
2022/11/30 00:24:09;;;;;;;;;;;;;;;5.07;69.16;102231.97;5123614;27;20275;-62
2022/11/30 00:26:35;;;;;;;;;;;;;;;5.05;68.90;102232.00;5127313;27;20306;-66
2022/11/30 00:29:00;;;;;;;;;;;;;;;5.02;68.95;102237.25;5127134;27;20385;-66
2022/11/30 00:31:25;;;;;;;;;;;;;;;5.06;68.81;102232.84;5129313;27;19971;-65
2022/11/30 00:33:57;;;;;;;;;;;;;;;5.08;69.11;102236.31;5112682;27;19966;-63
2022/11/30 00:36:22;;;;;;;;;;;;;;;5.05;68.88;102232.00;5121379;27;19957;-62
2022/11/30 00:38:48;;;;;;;;;;;;;;;5.03;68.93;102234.59;5127739;27;19975;-64
2022/11/30 00:41:14;;;;;;;;;;;;;;;5.01;69.24;102238.13;5128864;27;19922;-63
2022/11/30 00:43:39;;;;;;;;;;;;;;;5.03;69.21;102238.97;5124515;27;20316;-60
2022/11/30 00:46:05;;;;;;;;;;;;;;;5.01;68.88;102236.34;5128733;27;19916;-63
2022/11/30 00:48:30;;;;;;;;;;;;;;;5.01;68.90;102233.75;5125198;27;19919;-64
2022/11/30 00:50:55;;;;;;;;;;;;;;;4.99;69.24;102235.50;5132704;27;19923;-62
2022/11/30 00:53:21;;;;;;;;;;;;;;;4.99;68.82;102239.88;5129314;27;20002;-62
2022/11/30 00:55:47;;;;;;;;;;;;;;;4.95;69.23;102244.25;5132142;27;19959;-65
2022/11/30 00:58:12;;;;;;;;;;;;;;;4.92;69.00;102241.69;5132217;27;19915;-62
2022/11/30 01:00:38;;;;;;;;;;;;;;;4.92;69.10;102240.78;5125229;27;20009;-59
2022/11/30 01:03:04;;;;;;;;;;;;;;;4.91;69.31;102241.72;5119569;27;19923;-62
2022/11/30 01:05:31;;;;;;;;;;;;;;;4.91;69.08;102242.56;5125474;27;19915;-64
2022/11/30 01:07:58;;;;;;;;;;;;;;;4.94;69.14;102244.25;5131243;27;19922;-61
2022/11/30 01:10:23;;;;;;;;;;;;;;;4.94;69.36;102244.25;5128743;27;19927;-64
2022/11/30 01:12:48;;;;;;;;;;;;;;;4.97;69.18;102247.72;5129542;27;19935;-61
2022/11/30 01:15:14;;;;;;;;;;;;;;;4.99;69.27;102247.69;5113376;27;20375;-61
2022/11/30 01:17:39;;;;;;;;;;;;;;;4.97;68.99;102245.13;5127752;27;19915;-62
2022/11/30 01:20:06;;;;;;;;;;;;;;;4.95;69.13;102246.88;5120106;27;20294;-60
2022/11/30 01:22:32;;;;;;;;;;;;;;;4.96;69.10;102246.00;5131280;27;19923;-63
2022/11/30 01:24:57;;;;;;;;;;;;;;;4.98;69.01;102245.97;5131245;27;19969;-62
2022/11/30 01:27:22;;;;;;;;;;;;;;;4.99;68.99;102245.09;5130903;27;19954;-64
2022/11/30 01:29:47;;;;;;;;;;;;;;;4.96;69.02;102247.72;5132108;27;19980;-64
2022/11/30 01:32:13;;;;;;;;;;;;;;;4.97;68.78;102254.66;5132429;27;19926;-62
2022/11/30 01:34:38;;;;;;;;;;;;;;;4.99;69.19;102252.91;5128498;27;20313;-62
2022/11/30 01:37:03;;;;;;;;;;;;;;;5.00;68.74;102254.66;5124078;27;19980;-61
2022/11/30 01:39:29;;;;;;;;;;;;;;;4.98;68.58;102254.66;5131678;27;19922;-60
2022/11/30 01:41:54;;;;;;;;;;;;;;;4.96;68.64;102253.81;5130720;27;20289;-64
2022/11/30 01:44:25;;;;;;;;;;;;;;;4.94;68.95;102255.56;5130779;27;19924;-63
2022/11/30 01:46:50;;;;;;;;;;;;;;;4.94;68.70;102254.69;5126633;27;19944;-63
2022/11/30 01:49:18;;;;;;;;;;;;;;;4.94;68.81;102260.78;5127368;27;19915;-61
2022/11/30 01:51:47;;;;;;;;;;;;;;;4.93;68.66;102263.41;5125172;27;19988;-61
2022/11/30 01:54:13;;;;;;;;;;;;;;;4.92;68.67;102259.06;5130884;27;19916;-63
2022/11/30 01:56:42;;;;;;;;;;;;;;;4.91;68.66;102262.56;5130825;27;20301;-63
2022/11/30 01:59:08;;;;;;;;;;;;;;;4.89;68.61;102259.97;5135761;27;20004;-59
2022/11/30 02:01:33;;;;;;;;;;;;;;;4.85;68.72;102253.91;5132294;27;20366;-61
2022/11/30 02:04:01;;;;;;;;;;;;;;;4.87;68.77;102259.09;5130259;27;20432;-64
2022/11/30 02:06:27;;;;;;;;;;;;;;;4.89;68.70;102257.34;5132636;27;20186;-65
2022/11/30 02:08:53;;;;;;;;;;;;;;;4.86;69.04;102253.03;5112697;27;20370;-62
2022/11/30 02:11:19;;;;;;;;;;;;;;;4.91;68.98;102254.75;5133149;27;20405;-63
2022/11/30 02:13:44;;;;;;;;;;;;;;;4.90;68.77;102253.00;5132116;27;19964;-63
2022/11/30 02:16:19;;;;;;;;;;;;;;;4.86;68.67;102252.16;5129565;27;19934;-60
2022/11/30 02:18:48;;;;;;;;;;;;;;;4.84;69.12;102246.13;5129232;27;19938;-62
2022/11/30 02:21:37;;;;;;;;;;;;;;;4.83;68.72;102247.84;5130304;27;20265;-64
2022/11/30 02:24:13;;;;;;;;;;;;;;;4.85;68.75;102256.53;5125662;27;19922;-62
2022/11/30 02:26:58;;;;;;;;;;;;;;;4.80;68.84;102247.88;5121897;27;19915;-64
2022/11/30 02:29:27;;;;;;;;;;;;;;;4.79;69.19;102250.50;5127744;27;19931;-64
2022/11/30 02:32:15;;;;;;;;;;;;;;;4.82;69.08;102248.72;5127024;27;20370;-60
2022/11/30 02:34:42;;;;;;;;;;;;;;;4.81;69.03;102249.59;5118217;27;20382;-65
2022/11/30 02:37:08;;;;;;;;;;;;;;;4.83;68.92;102253.06;5112394;27;19919;-62
2022/11/30 02:39:34;;;;;;;;;;;;;;;4.83;68.85;102247.00;5125482;27;19920;-61
2022/11/30 02:41:59;;;;;;;;;;;;;;;4.83;68.70;102253.06;5122371;27;19926;-63
2022/11/30 02:44:25;;;;;;;;;;;;;;;4.85;69.23;102260.88;5129646;27;19918;-62
2022/11/30 02:46:57;;;;;;;;;;;;;;;4.83;69.19;102258.28;5128623;27;20347;-62
2022/11/30 02:49:28;;;;;;;;;;;;;;;4.82;69.25;102256.53;5110862;27;20290;-64
2022/11/30 02:51:54;;;;;;;;;;;;;;;4.81;69.10;102248.75;5127731;27;19919;-59
2022/11/30 02:54:20;;;;;;;;;;;;;;;4.75;69.13;102265.31;5129687;27;19918;-59
2022/11/30 02:56:45;;;;;;;;;;;;;;;4.73;69.10;102267.94;5126555;28;19919;-62
2022/11/30 02:59:11;;;;;;;;;;;;;;;4.76;68.96;102259.22;5123082;27;20293;-63
2022/11/30 03:01:37;;;;;;;;;;;;;;;4.77;68.99;102262.69;5123521;27;19919;-60
2022/11/30 03:04:02;;;;;;;;;;;;;;;4.78;69.10;102269.63;5128744;27;19919;-59
2022/11/30 03:06:27;;;;;;;;;;;;;;;4.79;69.36;102267.00;5127035;28;19972;-64
2022/11/30 03:08:53;;;;;;;;;;;;;;;4.79;68.97;102277.44;5129321;27;19995;-64
2022/11/30 03:11:18;;;;;;;;;;;;;;;4.77;68.89;102263.53;5127893;27;20018;-63
2022/11/30 03:13:43;;;;;;;;;;;;;;;4.77;68.95;102263.53;5122847;27;19919;-64
2022/11/30 03:16:10;;;;;;;;;;;;;;;4.74;69.09;102268.81;5128736;27;20344;-60
2022/11/30 03:18:35;;;;;;;;;;;;;;;4.75;69.09;102265.31;5130457;27;19927;-60
2022/11/30 03:21:03;;;;;;;;;;;;;;;4.77;68.80;102260.94;5128537;27;19927;-59
2022/11/30 03:23:29;;;;;;;;;;;;;;;4.78;68.95;102269.63;5128879;27;19981;-60
2022/11/30 03:25:57;;;;;;;;;;;;;;;4.75;69.13;102270.53;5128938;27;19959;-62
2022/11/30 03:28:23;;;;;;;;;;;;;;;4.65;69.10;102269.75;5133765;27;19960;-61
2022/11/30 03:30:49;;;;;;;;;;;;;;;4.68;69.38;102279.28;5127718;27;19920;-62
2022/11/30 03:33:14;;;;;;;;;;;;;;;4.67;69.44;102283.66;5124425;27;20014;-63
2022/11/30 03:35:39;;;;;;;;;;;;;;;4.66;69.35;102279.31;5127695;27;19973;-60
2022/11/30 03:38:04;;;;;;;;;;;;;;;4.66;69.51;102281.91;5130934;27;19911;-62
2022/11/30 03:40:30;;;;;;;;;;;;;;;4.70;69.37;102283.59;5131081;27;20301;-62
2022/11/30 03:42:55;;;;;;;;;;;;;;;4.73;69.29;102280.13;5130545;27;19922;-66
2022/11/30 03:45:20;;;;;;;;;;;;;;;4.75;69.49;102288.78;5129209;27;19931;-62
2022/11/30 03:47:46;;;;;;;;;;;;;;;4.76;69.40;102282.69;5130409;27;20030;-61
2022/11/30 03:50:11;;;;;;;;;;;;;;;4.78;69.31;102285.28;5130066;27;19965;-61
2022/11/30 03:52:36;;;;;;;;;;;;;;;4.79;69.32;102287.88;5133318;27;19922;-63
2022/11/30 03:55:02;;;;;;;;;;;;;;;4.79;69.28;102287.88;5131788;27;19923;-60
2022/11/30 03:57:27;;;;;;;;;;;;;;;4.78;68.99;102290.50;5134315;27;19927;-62
2022/11/30 03:59:52;;;;;;;;;;;;;;;4.75;69.03;102296.63;5129283;27;20008;-63
2022/11/30 04:02:18;;;;;;;;;;;;;;;4.70;69.06;102293.16;5130334;27;19933;-61
2022/11/30 04:04:43;;;;;;;;;;;;;;;4.72;69.17;102292.28;5128255;27;19920;-64
2022/11/30 04:07:08;;;;;;;;;;;;;;;4.66;69.36;102291.47;5115064;27;19920;-63
2022/11/30 04:09:33;;;;;;;;;;;;;;;4.64;69.37;102288.88;5132237;27;19958;-62
2022/11/30 04:11:59;;;;;;;;;;;;;;;4.60;69.80;102296.75;5133638;27;19923;-63
2022/11/30 04:14:24;;;;;;;;;;;;;;;4.58;69.84;102294.13;5132829;27;19919;-63
2022/11/30 04:16:50;;;;;;;;;;;;;;;4.60;69.44;102296.75;5132774;27;19925;-62
2022/11/30 04:19:15;;;;;;;;;;;;;;;4.60;69.93;102302.81;5128899;27;20382;-61
2022/11/30 04:21:40;;;;;;;;;;;;;;;4.60;69.54;102300.19;5128225;27;19951;-63
2022/11/30 04:24:06;;;;;;;;;;;;;;;4.67;69.37;102298.41;5125121;27;19969;-61
2022/11/30 04:26:31;;;;;;;;;;;;;;;4.64;69.36;102298.41;5133283;27;19922;-62
2022/11/30 04:28:56;;;;;;;;;;;;;;;4.64;69.56;102301.03;5133193;27;19919;-62
2022/11/30 04:31:22;;;;;;;;;;;;;;;4.61;69.72;102298.47;5126225;27;19934;-60
2022/11/30 04:33:51;;;;;;;;;;;;;;;4.62;69.55;102306.28;5131710;27;19998;-63
2022/11/30 04:36:18;;;;;;;;;;;;;;;4.64;69.56;102306.25;5127853;27;19965;-63
2022/11/30 04:38:44;;;;;;;;;;;;;;;4.62;69.77;102300.16;5129004;27;19994;-63
2022/11/30 04:41:09;;;;;;;;;;;;;;;4.57;70.06;102306.31;5132775;27;20360;-62
2022/11/30 04:43:34;;;;;;;;;;;;;;;4.60;69.71;102307.16;5131611;27;19922;-61
2022/11/30 04:46:00;;;;;;;;;;;;;;;4.62;69.65;102310.59;5130480;27;19972;-61
2022/11/30 04:48:25;;;;;;;;;;;;;;;4.62;69.80;102313.22;5124767;27;19915;-63
2022/11/30 04:50:50;;;;;;;;;;;;;;;4.60;69.77;102315.84;5135304;27;20289;-60
2022/11/30 04:53:15;;;;;;;;;;;;;;;4.60;69.77;102309.78;5131950;27;20362;-62
2022/11/30 04:55:41;;;;;;;;;;;;;;;4.61;69.72;102311.50;5135511;27;19949;-60
2022/11/30 04:58:06;;;;;;;;;;;;;;;4.62;69.94;102310.59;5129736;27;19964;-64
2022/11/30 05:00:33;;;;;;;;;;;;;;;4.64;69.54;102304.53;5115810;27;19944;-64
2022/11/30 05:02:58;;;;;;;;;;;;;;;4.66;69.42;102302.78;5133894;27;19911;-64
2022/11/30 05:05:23;;;;;;;;;;;;;;;4.68;69.37;102310.56;5130413;27;19987;-66
2022/11/30 05:07:50;;;;;;;;;;;;;;;4.72;69.42;102318.34;5134952;27;19927;-62
2022/11/30 05:10:15;;;;;;;;;;;;;;;4.68;69.24;102321.00;5131961;27;19924;-62
2022/11/30 05:12:41;;;;;;;;;;;;;;;4.69;69.30;102320.13;5132400;27;20289;-60
2022/11/30 05:15:06;;;;;;;;;;;;;;;4.65;69.64;102318.41;5127745;27;19957;-64
2022/11/30 05:17:32;;;;;;;;;;;;;;;4.63;69.54;102317.53;5129649;27;19919;-62
2022/11/30 05:19:57;;;;;;;;;;;;;;;4.64;69.35;102320.16;5133788;27;20010;-60
2022/11/30 05:22:22;;;;;;;;;;;;;;;4.65;69.56;102321.91;5116619;27;19964;-62
2022/11/30 05:24:48;;;;;;;;;;;;;;;4.64;69.39;102321.88;5123351;27;19927;-62
2022/11/30 05:27:13;;;;;;;;;;;;;;;4.61;69.44;102330.59;5131589;27;20289;-63
2022/11/30 05:29:38;;;;;;;;;;;;;;;4.60;69.64;102328.03;5106062;27;19943;-65
2022/11/30 05:32:04;;;;;;;;;;;;;;;4.57;69.60;102336.72;5115830;27;19927;-63
2022/11/30 05:34:29;;;;;;;;;;;;;;;4.56;69.74;102338.47;5119039;27;19919;-63
2022/11/30 05:36:54;;;;;;;;;;;;;;;4.55;70.10;102339.34;5124545;27;19935;-64
2022/11/30 05:39:19;;;;;;;;;;;;;;;4.55;69.69;102334.13;5133101;27;19920;-63
2022/11/30 05:41:45;;;;;;;;;;;;;;;4.51;69.80;102337.63;5132678;27;20279;-62
2022/11/30 05:44:11;;;;;;;;;;;;;;;4.50;69.85;102332.44;5126281;27;19927;-60
2022/11/30 05:46:37;;;;;;;;;;;;;;;4.49;69.80;102336.75;5132246;27;20005;-61
2022/11/30 05:49:02;;;;;;;;;;;;;;;4.49;70.00;102347.19;5123861;27;20623;-64
2022/11/30 05:51:27;;;;;;;;;;;;;;;4.49;70.35;102341.13;5131425;27;20364;-62
2022/11/30 05:53:53;;;;;;;;;;;;;;;4.50;70.34;102346.31;5133517;27;19924;-63
2022/11/30 05:56:19;;;;;;;;;;;;;;;4.54;70.31;102345.44;5129919;27;19920;-62
2022/11/30 05:58:45;;;;;;;;;;;;;;;4.53;70.25;102354.13;5127771;27;19922;-62
2022/11/30 06:01:17;;;;;;;;;;;;;;;4.54;70.04;102349.75;5125343;27;19927;-61
2022/11/30 06:03:42;;;;;;;;;;;;;;;4.54;70.02;102352.38;5132807;27;20610;-62
2022/11/30 06:06:07;;;;;;;;;;;;;;;4.55;69.74;102357.59;5134246;27;20025;-60
2022/11/30 06:08:33;;;;;;;;;;;;;;;4.56;69.95;102358.44;5110173;27;19926;-61
2022/11/30 06:10:59;;;;;;;;;;;;;;;4.54;69.87;102355.84;5115316;27;19921;-61
2022/11/30 06:13:24;;;;;;;;;;;;;;;4.56;70.17;102359.31;5131107;27;19921;-61
2022/11/30 06:15:49;;;;;;;;;;;;;;;4.51;70.09;102360.25;5128285;27;19919;-60
2022/11/30 06:18:15;;;;;;;;;;;;;;;4.49;69.99;102364.59;5133623;27;20331;-61
2022/11/30 06:20:40;;;;;;;;;;;;;;;4.47;70.44;102364.56;5130492;27;19915;-59
2022/11/30 06:23:05;;;;;;;;;;;;;;;4.48;70.07;102366.31;5134633;27;19919;-62
2022/11/30 06:25:31;;;;;;;;;;;;;;;4.50;70.20;102369.78;5127826;27;20362;-61
2022/11/30 06:27:56;;;;;;;;;;;;;;;4.50;70.52;102364.56;5137711;27;19920;-61
2022/11/30 06:30:22;;;;;;;;;;;;;;;4.50;70.13;102374.16;5131898;27;19919;-62
2022/11/30 06:32:50;;;;;;;;;;;;;;;4.46;70.27;102368.09;5132952;27;20291;-65
2022/11/30 06:35:16;;;;;;;;;;;;;;;4.47;70.27;102372.41;5130926;27;19915;-59
2022/11/30 06:37:41;;;;;;;;;;;;;;;4.47;70.58;102377.63;5137729;27;19968;-61
2022/11/30 06:40:07;;;;;;;;;;;;;;;4.48;70.43;102379.34;5136402;27;19919;-63
2022/11/30 06:42:33;;;;;;;;;;;;;;;4.48;70.21;102381.09;5113882;27;20459;-60
2022/11/30 06:44:58;;;;;;;;;;;;;;;4.48;70.15;102381.09;5131893;27;20007;-63
2022/11/30 06:47:24;;;;;;;;;;;;;;;4.49;70.39;102386.28;5129119;27;19926;-63
2022/11/30 06:49:49;;;;;;;;;;;;;;;4.49;70.51;102394.13;5110175;27;19953;-64
2022/11/30 06:52:15;;;;;;;;;;;;;;;4.51;70.11;102391.53;5133906;27;19919;-61
2022/11/30 06:54:40;;;;;;;;;;;;;;;4.51;70.50;102392.38;5132042;27;19916;-63
2022/11/30 06:57:05;;;;;;;;;;;;;;;4.49;70.17;102404.53;5129929;27;19922;-62
2022/11/30 06:59:31;;;;;;;;;;;;;;;4.48;70.51;102408.03;5124126;28;19916;-62
2022/11/30 07:01:56;;;;;;;;;;;;;;;4.50;70.25;102406.28;5134035;27;20426;-66
2022/11/30 07:04:21;;;;;;;;;;;;;;;4.52;70.48;102398.47;5111564;28;19926;-63
2022/11/30 07:06:46;;;;;;;;;;;;;;;4.50;70.55;102398.47;5131528;27;20334;-61
2022/11/30 07:09:12;;;;;;;;;;;;;;;4.49;70.51;102407.16;5111735;28;19922;-64
2022/11/30 07:11:38;;;;;;;;;;;;;;;4.50;70.59;102403.66;5131286;27;19931;-62
2022/11/30 07:14:03;;;;;;;;;;;;;;;4.49;70.58;102407.16;5110161;28;20048;-62
2022/11/30 07:16:28;;;;;;;;;;;;;;;4.51;70.37;102404.56;5124696;27;19920;-66
2022/11/30 07:18:54;;;;;;;;;;;;;;;4.50;70.19;102411.50;5138393;27;20335;-65
2022/11/30 07:21:19;;;;;;;;;;;;;;;4.54;70.12;102412.34;5130707;27;19927;-62
2022/11/30 07:26:28;;;;;;;;;;;;;;;4.55;70.38;102417.56;5142691;27;20003;-60
2022/11/30 07:28:54;;;;;;;;;;;;;;;4.55;70.06;102414.94;5139940;27;19949;-63
2022/11/30 07:31:19;;;;;;;;;;;;;;;4.48;70.05;102418.44;5134700;27;19930;-66
2022/11/30 07:33:44;;;;;;;;;;;;;;;4.46;70.48;102417.63;5137346;27;19971;-62
2022/11/30 07:36:10;;;;;;;;;;;;;;;4.49;70.30;102420.19;5135928;27;19941;-64
2022/11/30 07:38:36;;;;;;;;;;;;;;;4.49;70.07;102422.78;5132719;27;20000;-62
2022/11/30 07:41:01;;;;;;;;;;;;;;;4.51;70.11;102422.81;5136730;27;19922;-61
2022/11/30 07:43:27;;;;;;;;;;;;;;;4.53;70.28;102429.72;5135105;27;20014;-62
2022/11/30 07:45:53;;;;;;;;;;;;;;;4.51;69.90;102434.09;5136506;27;19994;-62
2022/11/30 07:48:18;;;;;;;;;;;;;;;4.50;70.07;102434.97;5135378;27;20003;-62
2022/11/30 07:50:44;;;;;;;;;;;;;;;4.51;69.97;102441.91;5135439;27;20400;-61
2022/11/30 07:53:09;;;;;;;;;;;;;;;4.50;70.04;102440.16;5138450;27;19927;-61
2022/11/30 07:55:34;;;;;;;;;;;;;;;4.51;70.39;102444.50;5161515;22;19919;-59
2022/11/30 07:58:00;;;;;;;;;;;;;;;4.52;70.03;102437.56;5083770;28;20014;-58
2022/11/30 08:00:25;;;;;;;;;;;;;;;4.53;70.12;102437.56;5114759;28;19988;-56
2022/11/30 08:02:51;;;;;;;;;;;;;;;4.56;70.10;102428.84;5116070;28;19912;-60
2022/11/30 08:05:16;;;;;;;;;;;;;;;4.57;70.15;102428.84;5114701;28;19926;-58
2022/11/30 08:07:41;;;;;;;;;;;;;;;4.59;70.18;102439.25;5092879;28;19916;-58
2022/11/30 08:10:07;;;;;;;;;;;;;;;4.53;70.37;102437.56;5116142;27;19919;-57
2022/11/30 08:12:32;;;;;;;;;;;;;;;4.56;69.94;102442.75;5108941;28;19936;-60
2022/11/30 08:14:58;;;;;;;;;;;;;;;4.56;70.00;102449.69;5117113;27;20400;-56
2022/11/30 08:17:23;;;;;;;;;;;;;;;4.55;70.46;102442.75;5114445;28;19923;-56
2022/11/30 08:19:48;;;;;;;;;;;;;;;4.54;70.24;102447.09;5118060;27;19948;-56
2022/11/30 08:22:13;;;;;;;;;;;;;;;4.53;70.19;102450.59;5121075;27;19915;-56
2022/11/30 08:24:39;;;;;;;;;;;;;;;4.55;70.24;102455.78;5094394;27;19923;-56
2022/11/30 08:27:04;;;;;;;;;;;;;;;4.60;70.45;102458.38;5113779;27;19928;-56
2022/11/30 08:29:29;;;;;;;;;;;;;;;4.58;70.18;102456.66;5108430;27;19920;-55
2022/11/30 08:31:55;;;;;;;;;;;;;;;4.60;70.21;102466.22;5101229;28;19920;-56
2022/11/30 08:34:20;;;;;;;;;;;;;;;4.57;69.95;102460.13;5116870;28;20282;-57
2022/11/30 08:36:45;;;;;;;;;;;;;;;4.58;70.39;102461.88;5118386;27;19919;-56
2022/11/30 08:39:11;;;;;;;;;;;;;;;4.56;70.16;102462.72;5116749;27;20309;-56
2022/11/30 08:41:38;;;;;;;;;;;;;;;4.56;70.44;102463.63;5109895;27;19923;-59
2022/11/30 08:44:03;;;;;;;;;;;;;;;4.62;70.20;102462.72;5117802;27;19951;-60
2022/11/30 08:46:28;;;;;;;;;;;;;;;4.68;70.00;102464.41;5112204;28;20344;-56
2022/11/30 08:48:54;;;;;;;;;;;;;;;4.68;70.33;102473.13;5104260;28;19927;-56
2022/11/30 08:51:20;;;;;;;;;;;;;;;4.67;70.02;102473.13;5111471;28;19919;-56
2022/11/30 08:53:46;;;;;;;;;;;;;;;4.72;70.16;102476.56;5115592;27;19922;-56
2022/11/30 08:56:13;;;;;;;;;;;;;;;4.77;70.15;102472.19;5115951;27;19928;-56
2022/11/30 08:58:39;;;;;;;;;;;;;;;4.82;69.92;102480.00;5113973;27;19976;-57
2022/11/30 09:01:05;;;;;;;;;;;;;;;4.83;70.03;102487.81;5113826;27;19920;-57
2022/11/30 09:03:30;;;;;;;;;;;;;;;4.87;69.55;102484.31;5110688;27;20314;-57
2022/11/30 09:06:02;;;;;;;;;;;;;;;4.90;69.48;102491.25;5115749;27;19924;-57
2022/11/30 09:08:27;;;;;;;;;;;;;;;4.91;69.36;102484.31;5115327;27;20460;-56
2022/11/30 09:10:52;;;;;;;;;;;;;;;4.92;69.34;102478.19;5115942;27;20527;-56
2022/11/30 09:13:18;;;;;;;;;;;;;;;4.93;69.27;102477.31;5109582;28;19970;-58
2022/11/30 09:15:43;;;;;;;;;;;;;;;4.95;69.54;102479.06;5115479;28;19973;-57
2022/11/30 09:18:10;;;;;;;;;;;;;;;5.00;69.22;102482.47;5112522;27;19923;-58
2022/11/30 09:20:36;;;;;;;;;;;;;;;5.05;69.07;102487.69;5111829;27;20309;-60
2022/11/30 09:23:01;;;;;;;;;;;;;;;5.08;69.15;102487.66;5112655;27;20317;-56
2022/11/30 09:25:26;;;;;;;;;;;;;;;5.10;68.88;102488.50;5111405;27;19924;-56
2022/11/30 09:27:52;;;;;;;;;;;;;;;5.13;69.09;102480.66;5109666;27;19924;-56
2022/11/30 09:30:17;;;;;;;;;;;;;;;5.14;68.58;102482.41;5106277;27;19924;-56
2022/11/30 09:32:42;;;;;;;;;;;;;;;5.17;68.99;102485.00;5118635;27;20340;-56
2022/11/30 09:35:08;;;;;;;;;;;;;;;5.22;68.65;102491.94;5110984;27;19947;-56
2022/11/30 09:37:33;;;;;;;;;;;;;;;5.26;68.54;102486.66;5113986;28;19950;-58
2022/11/30 09:39:58;;;;;;;;;;;;;;;5.31;68.41;102486.63;5113661;28;19915;-56
2022/11/30 09:42:40;;;;;;;;;;;;;;;5.31;67.88;102490.09;5109734;28;20018;-56
2022/11/30 09:45:10;;;;;;;;;;;;;;;5.33;68.22;102488.34;5111882;28;20002;-56
2022/11/30 09:48:07;;;;;;;;;;;;;;;5.38;68.36;102493.53;5113985;28;19911;-55
2022/11/30 09:50:36;;;;;;;;;;;;;;;5.41;68.17;102496.13;5068615;27;20386;-56
2022/11/30 09:53:04;;;;;;;;;;;;;;;5.42;68.01;102486.56;5114908;27;19920;-56
2022/11/30 09:55:31;;;;;;;;;;;;;;;5.43;67.95;102489.13;5109336;28;19920;-56
2022/11/30 09:58:01;;;;;;;;;;;;;;;5.48;68.24;102483.88;5113309;27;19915;-56
2022/11/30 10:00:27;;;;;;;;;;;;;;;5.48;68.12;102484.75;5105530;28;19924;-56
2022/11/30 10:02:53;;;;;;;;;;;;;;;5.49;67.82;102483.88;5114720;27;19915;-59
2022/11/30 10:05:27;;;;;;;;;;;;;;;5.57;67.92;102480.31;5114145;28;19916;-58
2022/11/30 10:07:55;;;;;;;;;;;;;;;5.61;67.56;102482.03;5097891;28;19920;-57
2022/11/30 10:10:32;;;;;;;;;;;;;;;5.63;67.23;102475.91;5115235;27;19919;-58
2022/11/30 10:13:03;;;;;;;;;;;;;;;5.66;67.33;102475.03;5106976;28;19920;-56
2022/11/30 10:15:47;;;;;;;;;;;;;;;5.67;67.05;102471.53;5114077;28;19919;-58
2022/11/30 10:18:24;;;;;;;;;;;;;;;5.73;67.43;102473.22;5111041;27;20390;-56
2022/11/30 10:21:08;;;;;;;;;;;;;;;5.72;66.71;102469.72;5113724;28;19911;-56
2022/11/30 10:23:46;;;;;;;;;;;;;;;5.70;66.88;102468.88;5111777;28;19966;-56
2022/11/30 10:26:15;;;;;;;;;;;;;;;5.73;66.87;102471.47;5110952;27;19923;-54
2022/11/30 10:28:43;;;;;;;;;;;;;;;5.72;66.56;102466.28;5110919;27;19915;-55
2022/11/30 10:31:09;;;;;;;;;;;;;;;5.66;66.80;102464.59;5110734;27;19996;-54
2022/11/30 10:33:41;;;;;;;;;;;;;;;5.70;67.04;102465.41;5110571;28;20011;-55
2022/11/30 10:36:25;;;;;;;;;;;;;;;5.72;66.60;102463.66;5118171;27;19911;-54
2022/11/30 10:38:59;;;;;;;;;;;;;;;5.77;66.96;102461.84;5109041;27;19922;-58
2022/11/30 10:41:28;;;;;;;;;;;;;;;5.79;66.86;102460.97;5112167;27;19924;-55
2022/11/30 10:43:58;;;;;;;;;;;;;;;5.84;66.95;102466.16;5103593;27;19920;-54
2022/11/30 10:46:26;;;;;;;;;;;;;;;5.86;66.79;102458.28;5107778;28;19926;-54
2022/11/30 10:48:55;;;;;;;;;;;;;;;5.89;66.51;102463.47;5108621;28;19912;-54
2022/11/30 10:51:21;;;;;;;;;;;;;;;5.82;66.47;102456.59;5111807;28;19928;-55
2022/11/30 10:53:46;;;;;;;;;;;;;;;5.83;66.21;102459.19;5118466;27;19916;-57
2022/11/30 10:56:13;;;;;;;;;;;;;;;5.91;66.58;102461.72;5116257;28;19927;-54
2022/11/30 10:58:47;;;;;;;;;;;;;;;5.90;66.12;102467.81;5104748;28;20006;-54
2022/11/30 11:01:30;;;;;;;;;;;;;;;5.88;66.46;102464.34;5110118;28;19962;-55
2022/11/30 11:04:14;;;;;;;;;;;;;;;5.89;66.34;102460.88;5109431;28;19919;-54
2022/11/30 11:06:48;;;;;;;;;;;;;;;5.92;66.20;102466.06;5111541;28;19911;-55
2022/11/30 11:09:29;;;;;;;;;;;;;;;5.95;66.12;102463.44;5110717;28;19915;-54
2022/11/30 11:12:13;;;;;;;;;;;;;;;6.01;66.23;102458.16;5108300;28;19927;-57
2022/11/30 11:14:38;;;;;;;;;;;;;;;6.03;66.32;102464.22;5091545;28;19920;-55
2022/11/30 11:17:25;;;;;;;;;;;;;;;6.00;65.96;102461.63;5114128;28;19919;-56
2022/11/30 11:19:51;;;;;;;;;;;;;;;6.01;66.02;102473.81;5105942;28;19916;-55
2022/11/30 11:22:20;;;;;;;;;;;;;;;6.03;66.35;102473.81;5109727;28;20309;-54
2022/11/30 11:24:46;;;;;;;;;;;;;;;6.03;66.13;102464.22;5115911;28;19922;-55
2022/11/30 11:27:38;;;;;;;;;;;;;;;6.08;66.60;102457.22;5109381;28;19919;-57
2022/11/30 11:30:03;;;;;;;;;;;;;;;6.12;66.45;102459.78;5108414;28;20996;-54
2022/11/30 11:32:29;;;;;;;;;;;;;;;6.16;66.24;102470.19;5109890;28;20006;-54
2022/11/30 11:34:55;;;;;;;;;;;;;;;6.13;66.11;102470.22;5108601;28;19963;-56
2022/11/30 11:37:20;;;;;;;;;;;;;;;6.14;66.32;102465.84;5103901;28;19954;-54
2022/11/30 11:39:54;;;;;;;;;;;;;;;6.16;66.19;102469.31;5107238;28;19960;-55
2022/11/30 11:42:20;;;;;;;;;;;;;;;6.21;65.97;102464.91;5104061;28;19965;-61
2022/11/30 11:44:49;;;;;;;;;;;;;;;6.21;65.76;102475.34;5109287;28;19935;-55
2022/11/30 11:47:38;;;;;;;;;;;;;;;6.18;65.49;102473.66;5110206;28;20006;-56
2022/11/30 11:50:24;;;;;;;;;;;;;;;6.19;65.82;102479.75;5099746;28;19919;-54
2022/11/30 11:53:05;;;;;;;;;;;;;;;6.20;65.98;102476.25;5108828;28;20360;-54
2022/11/30 11:55:31;;;;;;;;;;;;;;;6.22;65.63;102479.72;5108077;28;19923;-57
2022/11/30 11:57:59;;;;;;;;;;;;;;;6.23;65.10;102484.06;5110713;28;19931;-55
2022/11/30 12:00:24;;;;;;;;;;;;;;;6.29;65.60;102496.19;5110733;28;19959;-54
2022/11/30 12:03:07;;;;;;;;;;;;;;;6.21;65.27;102493.66;5109029;28;19958;-54
2022/11/30 12:05:35;;;;;;;;;;;;;;;6.14;65.03;102484.13;5114180;28;19953;-55
2022/11/30 12:08:14;;;;;;;;;;;;;;;6.13;65.56;102498.09;5113984;27;20518;-55
2022/11/30 12:10:42;;;;;;;;;;;;;;;6.14;65.18;102490.25;5112539;27;19916;-54
2022/11/30 12:13:10;;;;;;;;;;;;;;;6.12;65.02;102493.78;5110453;28;19976;-59
2022/11/30 12:15:40;;;;;;;;;;;;;;;6.06;65.45;102498.19;5111293;27;20360;-57
2022/11/30 12:18:14;;;;;;;;;;;;;;;6.07;65.15;102497.28;5113025;27;19911;-55
2022/11/30 12:20:52;;;;;;;;;;;;;;;6.05;65.58;102499.06;5108834;27;19916;-56
2022/11/30 12:23:36;;;;;;;;;;;;;;;6.01;65.10;102496.50;5114639;27;20007;-54
2022/11/30 12:26:17;;;;;;;;;;;;;;;5.98;65.67;102499.94;5113650;27;19922;-56
2022/11/30 12:28:45;;;;;;;;;;;;;;;6.01;65.38;102501.72;5106804;27;19915;-54
2022/11/30 12:31:14;;;;;;;;;;;;;;;6.02;65.56;102499.09;5115031;27;19923;-56
2022/11/30 12:33:59;;;;;;;;;;;;;;;5.99;64.95;102499.06;5109099;28;20427;-57
2022/11/30 12:36:40;;;;;;;;;;;;;;;5.97;65.26;102505.22;5105041;28;19934;-57
2022/11/30 12:39:14;;;;;;;;;;;;;;;5.95;65.65;102513.06;5107448;28;19969;-55
2022/11/30 12:42:00;;;;;;;;;;;;;;;5.92;65.44;102513.94;5102172;27;19963;-56
2022/11/30 12:44:37;;;;;;;;;;;;;;;5.93;65.28;102509.59;5110049;28;19928;-55
2022/11/30 12:47:08;;;;;;;;;;;;;;;5.98;65.46;102515.63;5104659;28;20005;-60
2022/11/30 12:49:37;;;;;;;;;;;;;;;5.90;65.57;102510.47;5110037;28;19954;-61
2022/11/30 12:52:21;;;;;;;;;;;;;;;5.89;65.75;102518.34;5106781;27;19927;-55
2022/11/30 12:54:52;;;;;;;;;;;;;;;5.94;65.49;102516.56;5105124;28;19923;-53